Em Athens — V7US8 — position and weather

sailwx.info

Track history (hours):
 
Tides and Currents Weather Stations Pressure Air Temp Water Temp Dewpoint Dewpoint Depression Visibility Wind Speed Wind Dir Waves Ship Positions

Em Athens

Last reported at 2014-Dec-15 18:12 UTC. Time now 2014-Dec-20 03:43 UTC.
Position N 35°60' W 005°10'.

Length 207 m; draft 10.7 m.

Type: Ship (hazmat cat A). MMSI: 538004019.

Date/timePositionNaut miles runAvg speedWind from/ knotsBaromVisibWave heightAir tempDewpointWater temp
2014-Dec-15 18:12N 35°60' W 005°10'1319.6
2014-Dec-15 17:33N 35°57' W 005°25'3 0.3
2014-Dec-15 06:18N 35°59' W 005°27'911.7
2014-Dec-15 05:32N 36°02' W 005°17'12 0.9
2014-Dec-14 15:29N 36°09' W 005°05'1 0.8
2014-Dec-14 14:10N 36°08' W 005°05'1 0.7
2014-Dec-14 13:25N 36°08' W 005°05'3 0.2
2014-Dec-13 20:33N 36°09' W 005°08'6 6.5
2014-Dec-13 19:33N 36°06' W 005°15'9 8.9
2014-Dec-13 18:33N 36°09' W 005°26'0 0.1
2014-Dec-13 16:07N 36°09' W 005°26'0 0.0
2014-Dec-13 15:19N 36°09' W 005°26'0 0.0
2014-Dec-13 14:31N 36°09' W 005°26'0 0.0
2014-Dec-13 00:19N 36°09' W 005°26'5 5.8
2014-Dec-12 23:30N 36°05' W 005°23'18215.3
2014-Dec-12 11:33N 36°46' W 001°42'3316.3
2014-Dec-12 09:32N 37°08' W 001°11'1616.4
2014-Dec-12 08:32N 37°19' W 000°56'1616.4
2014-Dec-12 07:33N 37°29' W 000°41'1717.0
2014-Dec-12 06:33N 37°42' W 000°26'1716.9
2014-Dec-12 05:33N 37°56' W 000°15'8713.7
2014-Dec-11 23:12N 39°23' W 000°15'4 5.1
2014-Dec-11 22:23N 39°26' W 000°19'0 0.0
2014-Dec-11 21:26N 39°26' W 000°19'0 0.0
2014-Dec-11 20:29N 39°26' W 000°19'0 0.0
2014-Dec-11 19:29N 39°26' W 000°19'0 0.0
2014-Dec-11 18:23N 39°26' W 000°19'0 0.0
2014-Dec-11 17:29N 39°26' W 000°19'0 0.0
2014-Dec-11 16:32N 39°26' W 000°19'0 0.0
2014-Dec-11 15:32N 39°26' W 000°19'0 0.0
2014-Dec-11 14:32N 39°26' W 000°19'0 0.0
2014-Dec-11 13:29N 39°26' W 000°19'0 0.0
2014-Dec-11 12:32N 39°26' W 000°19'3 2.7
2014-Dec-11 11:33N 39°25' W 000°16'13 9.0
2014-Dec-11 10:09N 39°25' E 000°00'6914.9
2014-Dec-11 05:30N 40°06' E 001°13'1718.0
2014-Dec-11 04:32N 40°18' E 001°29'1917.6
2014-Dec-11 03:27N 40°32' E 001°46'1617.2
2014-Dec-11 02:32N 40°44' E 002°00'1717.4
2014-Dec-11 01:33N 40°56' E 002°15'1818.1
2014-Dec-11 00:33N 41°09' E 002°32'1817.5
2014-Dec-10 23:32N 41°22' E 002°48'1616.9
2014-Dec-10 22:34N 41°34' E 003°03'5417.8
2014-Dec-10 19:32N 42°14' E 003°53'2117.6
2014-Dec-10 18:19N 42°29' E 004°13'1618.4
2014-Dec-10 17:29N 42°41' E 004°27'1617.2
2014-Dec-10 16:34N 42°52' E 004°42'1717.0
2014-Dec-10 15:33N 43°04' E 004°58'1616.1
2014-Dec-10 14:34N 43°21' E 004°58'7 7.2
2014-Dec-10 13:32N 43°25' E 004°50'0 0.0
2014-Dec-10 12:32N 43°25' E 004°50'0 0.0
2014-Dec-10 11:32N 43°25' E 004°50'0 0.0
2014-Dec-10 10:32N 43°25' E 004°50'0 0.0
2014-Dec-10 09:32N 43°25' E 004°50'0 0.0
2014-Dec-10 08:32N 43°25' E 004°50'0 0.0
2014-Dec-10 07:32N 43°25' E 004°50'0 0.0
2014-Dec-10 06:32N 43°25' E 004°50'0 0.0
2014-Dec-10 05:32N 43°25' E 004°50'0 0.0
2014-Dec-10 04:32N 43°25' E 004°50'0 0.0
2014-Dec-10 03:32N 43°25' E 004°50'0 0.0
2014-Dec-10 02:32N 43°25' E 004°50'0 0.0
2014-Dec-10 01:32N 43°25' E 004°50'0 0.0
2014-Dec-10 00:32N 43°25' E 004°50'0 0.0
2014-Dec-09 23:32N 43°25' E 004°50'0 0.0
2014-Dec-09 22:32N 43°25' E 004°50'0 0.0
2014-Dec-09 21:32N 43°25' E 004°50'0 0.0
2014-Dec-09 20:32N 43°25' E 004°50'0 0.0
2014-Dec-09 19:32N 43°25' E 004°50'0 0.0
2014-Dec-09 18:29N 43°25' E 004°50'2 1.7
2014-Dec-09 17:34N 43°24' E 004°52'9 9.0
2014-Dec-09 16:33N 43°17' E 005°00'8 8.3
2014-Dec-09 15:33N 43°10' E 005°04'9 9.0
2014-Dec-09 14:33N 43°04' E 005°14'10 9.7
2014-Dec-09 13:33N 42°59' E 005°25'  
2014-Dec-06 20:31N 35°56' E 023°55'1818.3
2014-Dec-06 19:33N 35°53' E 024°16'1818.4
2014-Dec-06 18:33N 35°49' E 024°38'1818.3
2014-Dec-06 17:33N 35°45' E 025°00'1818.2
2014-Dec-06 16:33N 35°41' E 025°22'1818.3
2014-Dec-06 15:34N 35°36' E 025°44'32218.6
2014-Dec-05 22:13N 33°42' E 031°51'  
Track history (hours):
 
Tides and Currents Weather Stations Pressure Air Temp Water Temp Dewpoint Dewpoint Depression Visibility Wind Speed Wind Dir Waves Ship Positions

Em Athens

Last reported at 2014-Dec-15 18:12 UTC. Time now 2014-Dec-20 03:43 UTC.
Position N 35°60' W 005°10'.

Length 207 m; draft 10.7 m.

Type: Ship (hazmat cat A). MMSI: 538004019.

Date/timePositionNaut miles runAvg speedWind from/ knotsBaromVisibWave heightAir tempDewpointWater temp
2014-Dec-15 18:12N 35°60' W 005°10'1319.6
2014-Dec-15 17:33N 35°57' W 005°25'3 0.3
2014-Dec-15 06:18N 35°59' W 005°27'911.7
2014-Dec-15 05:32N 36°02' W 005°17'12 0.9
2014-Dec-14 15:29N 36°09' W 005°05'1 0.8
2014-Dec-14 14:10N 36°08' W 005°05'1 0.7
2014-Dec-14 13:25N 36°08' W 005°05'3 0.2
2014-Dec-13 20:33N 36°09' W 005°08'6 6.5
2014-Dec-13 19:33N 36°06' W 005°15'9 8.9
2014-Dec-13 18:33N 36°09' W 005°26'0 0.1
2014-Dec-13 16:07N 36°09' W 005°26'0 0.0
2014-Dec-13 15:19N 36°09' W 005°26'0 0.0
2014-Dec-13 14:31N 36°09' W 005°26'0 0.0
2014-Dec-13 00:19N 36°09' W 005°26'5 5.8
2014-Dec-12 23:30N 36°05' W 005°23'18215.3
2014-Dec-12 11:33N 36°46' W 001°42'3316.3
2014-Dec-12 09:32N 37°08' W 001°11'1616.4
2014-Dec-12 08:32N 37°19' W 000°56'1616.4
2014-Dec-12 07:33N 37°29' W 000°41'1717.0
2014-Dec-12 06:33N 37°42' W 000°26'1716.9
2014-Dec-12 05:33N 37°56' W 000°15'8713.7
2014-Dec-11 23:12N 39°23' W 000°15'4 5.1
2014-Dec-11 22:23N 39°26' W 000°19'0 0.0
2014-Dec-11 21:26N 39°26' W 000°19'0 0.0
2014-Dec-11 20:29N 39°26' W 000°19'0 0.0
2014-Dec-11 19:29N 39°26' W 000°19'0 0.0
2014-Dec-11 18:23N 39°26' W 000°19'0 0.0
2014-Dec-11 17:29N 39°26' W 000°19'0 0.0
2014-Dec-11 16:32N 39°26' W 000°19'0 0.0
2014-Dec-11 15:32N 39°26' W 000°19'0 0.0
2014-Dec-11 14:32N 39°26' W 000°19'0 0.0
2014-Dec-11 13:29N 39°26' W 000°19'0 0.0
2014-Dec-11 12:32N 39°26' W 000°19'3 2.7
2014-Dec-11 11:33N 39°25' W 000°16'13 9.0
2014-Dec-11 10:09N 39°25' E 000°00'6914.9
2014-Dec-11 05:30N 40°06' E 001°13'1718.0
2014-Dec-11 04:32N 40°18' E 001°29'1917.6
2014-Dec-11 03:27N 40°32' E 001°46'1617.2
2014-Dec-11 02:32N 40°44' E 002°00'1717.4
2014-Dec-11 01:33N 40°56' E 002°15'1818.1
2014-Dec-11 00:33N 41°09' E 002°32'1817.5
2014-Dec-10 23:32N 41°22' E 002°48'1616.9
2014-Dec-10 22:34N 41°34' E 003°03'5417.8
2014-Dec-10 19:32N 42°14' E 003°53'2117.6
2014-Dec-10 18:19N 42°29' E 004°13'1618.4
2014-Dec-10 17:29N 42°41' E 004°27'1617.2
2014-Dec-10 16:34N 42°52' E 004°42'1717.0
2014-Dec-10 15:33N 43°04' E 004°58'1616.1
2014-Dec-10 14:34N 43°21' E 004°58'7 7.2
2014-Dec-10 13:32N 43°25' E 004°50'0 0.0
2014-Dec-10 12:32N 43°25' E 004°50'0 0.0
2014-Dec-10 11:32N 43°25' E 004°50'0 0.0
2014-Dec-10 10:32N 43°25' E 004°50'0 0.0
2014-Dec-10 09:32N 43°25' E 004°50'0 0.0
2014-Dec-10 08:32N 43°25' E 004°50'0 0.0
2014-Dec-10 07:32N 43°25' E 004°50'0 0.0
2014-Dec-10 06:32N 43°25' E 004°50'0 0.0
2014-Dec-10 05:32N 43°25' E 004°50'0 0.0
2014-Dec-10 04:32N 43°25' E 004°50'0 0.0
2014-Dec-10 03:32N 43°25' E 004°50'0 0.0
2014-Dec-10 02:32N 43°25' E 004°50'0 0.0
2014-Dec-10 01:32N 43°25' E 004°50'0 0.0
2014-Dec-10 00:32N 43°25' E 004°50'0 0.0
2014-Dec-09 23:32N 43°25' E 004°50'0 0.0
2014-Dec-09 22:32N 43°25' E 004°50'0 0.0
2014-Dec-09 21:32N 43°25' E 004°50'0 0.0
2014-Dec-09 20:32N 43°25' E 004°50'0 0.0
2014-Dec-09 19:32N 43°25' E 004°50'0 0.0
2014-Dec-09 18:29N 43°25' E 004°50'2 1.7
2014-Dec-09 17:34N 43°24' E 004°52'9 9.0
2014-Dec-09 16:33N 43°17' E 005°00'8 8.3
2014-Dec-09 15:33N 43°10' E 005°04'9 9.0
2014-Dec-09 14:33N 43°04' E 005°14'10 9.7
2014-Dec-09 13:33N 42°59' E 005°25'  
2014-Dec-06 20:31N 35°56' E 023°55'1818.3
2014-Dec-06 19:33N 35°53' E 024°16'1818.4
2014-Dec-06 18:33N 35°49' E 024°38'1818.3
2014-Dec-06 17:33N 35°45' E 025°00'1818.2
2014-Dec-06 16:33N 35°41' E 025°22'1818.3
2014-Dec-06 15:34N 35°36' E 025°44'32218.6
2014-Dec-05 22:13N 33°42' E 031°51'  

Dump ship's entire track history